Time;durP1;ratioP1;P1;durP2;ratioP2;P2;SDS_P1;SDS_P2;PMS_P1;PMS_P2;Temp;Humidity;BMP_temperature;BMP_pressure;BME280_temperature;BME280_humidity;BME280_pressure;Samples;Min_cycle;Max_cycle;Signal;HPM_P1;HPM_P2
2022/01/26 00:00:30;;;;;;;92.25;70.97;;;;;;;4.61;74.30;103273.50;4862333;29;20048;-46
2022/01/26 00:05:49;;;;;;;90.75;69.65;;;;;;;4.54;74.75;103267.91;4863259;29;20042;-48
2022/01/26 00:08:19;;;;;;;87.65;67.13;;;;;;;4.54;74.92;103272.47;4862959;29;20120;-46
2022/01/26 00:10:47;;;;;;;92.70;70.10;;;;;;;4.54;75.18;103276.00;4862936;29;20132;-48
2022/01/26 00:13:14;;;;;;;89.65;70.47;;;;;;;4.53;74.85;103281.59;4863100;29;20073;-48
2022/01/26 00:15:42;;;;;;;94.40;70.45;;;;;;;4.48;74.87;103284.81;4863965;29;20038;-48
2022/01/26 00:18:10;;;;;;;91.05;70.47;;;;;;;4.45;75.19;103280.59;4862726;29;20129;-46
2022/01/26 00:20:50;;;;;;;95.32;71.82;;;;;;;4.43;75.16;103282.59;4862681;29;20061;-49
2022/01/26 00:26:05;;;;;;;95.68;70.18;;;;;;;4.44;75.31;103284.28;4862839;29;20140;-49
2022/01/26 00:33:06;;;;;;;93.07;68.35;;;;;;;4.46;75.20;103255.25;4792069;29;20099;-49
2022/01/26 00:38:33;;;;;;;94.15;70.45;;;;;;;4.46;75.20;103259.81;4787576;30;20052;-47
2022/01/26 00:40:01;;;;;;;95.55;72.38;;;;;;;4.37;74.98;103264.34;4786741;29;20184;-46
2022/01/26 00:42:35;;;;;;;91.30;69.55;;;;;;;4.36;74.92;103264.53;4803868;29;20062;-46
2022/01/26 00:45:04;;;;;;;93.07;69.15;;;;;;;4.36;74.97;103261.84;4805715;29;20138;-45
2022/01/26 00:47:32;;;;;;;90.28;67.80;;;;;;;4.35;75.10;103260.13;4805476;29;20054;-46
2022/01/26 00:50:05;;;;;;;93.18;70.07;;;;;;;4.36;74.76;103265.38;4800699;29;20054;-46
2022/01/26 00:52:44;;;;;;;94.47;72.53;;;;;;;4.37;74.23;103261.66;4787202;30;20584;-48
2022/01/26 00:55:16;;;;;;;98.07;71.03;;;;;;;4.32;74.82;103261.31;4787110;30;20059;-45
2022/01/26 00:57:44;;;;;;;93.13;69.10;;;;;;;4.33;74.47;103270.25;4787189;29;20565;-46
2022/01/26 01:00:21;;;;;;;94.72;71.68;;;;;;;4.30;74.37;103260.63;4787280;29;20051;-46
2022/01/26 01:02:51;;;;;;;97.07;72.35;;;;;;;4.33;74.63;103264.84;4805034;29;20062;-43
2022/01/26 01:05:26;;;;;;;92.65;68.20;;;;;;;4.34;74.62;103262.00;4805011;29;20053;-43
2022/01/26 01:08:02;;;;;;;93.03;71.07;;;;;;;4.36;74.25;103257.28;4810639;29;20062;-45
2022/01/26 01:10:30;;;;;;;93.87;71.63;;;;;;;4.35;74.52;103258.28;4825469;29;20050;-46
2022/01/26 01:12:59;;;;;;;89.88;69.13;;;;;;;4.34;74.66;103261.16;4826188;29;20413;-44
2022/01/26 01:15:28;;;;;;;91.63;69.93;;;;;;;4.35;74.44;103246.63;4843440;29;20049;-43
2022/01/26 01:18:23;;;;;;;94.60;70.53;;;;;;;4.36;74.71;103242.94;4827040;29;20092;-43
2022/01/26 01:21:11;;;;;;;91.00;67.70;;;;;;;4.37;74.52;103248.16;4843188;29;20530;-45
2022/01/26 01:29:12;;;;;;;88.93;67.65;;;;;;;4.38;74.26;103233.66;4842978;29;20053;-48
2022/01/26 01:34:10;;;;;;;100.10;70.03;;;;;;;4.38;74.57;103230.13;4841859;29;20106;-48
2022/01/26 01:36:40;;;;;;;94.53;69.43;;;;;;;4.38;74.29;103224.75;4843190;29;20049;-48
2022/01/26 01:39:09;;;;;;;92.75;71.10;;;;;;;4.38;74.67;103224.75;4826264;29;20057;-46
2022/01/26 01:41:39;;;;;;;95.30;70.63;;;;;;;4.38;74.60;103230.13;4823039;29;20047;-44
2022/01/26 01:44:07;;;;;;;89.53;68.22;;;;;;;4.38;74.48;103224.75;4820371;29;20386;-48
2022/01/26 01:46:36;;;;;;;91.90;69.68;;;;;;;4.37;74.46;103223.88;4826311;29;20457;-47
2022/01/26 01:49:05;;;;;;;98.85;72.63;;;;;;;4.38;74.31;103219.34;4843013;29;20054;-47
2022/01/26 01:51:37;;;;;;;100.68;72.78;;;;;;;4.37;74.67;103229.25;4842760;29;20064;-49
2022/01/26 01:54:09;;;;;;;95.50;71.75;;;;;;;4.35;74.34;103230.44;4842112;29;20433;-47
2022/01/26 01:56:39;;;;;;;91.78;70.88;;;;;;;4.33;75.04;103224.38;4842763;29;20049;-47
2022/01/26 01:59:06;;;;;;;94.78;69.88;;;;;;;4.35;74.96;103230.44;4826641;29;20057;-46
2022/01/26 02:01:34;;;;;;;96.45;70.78;;;;;;;4.36;74.91;103229.44;4851752;29;20500;-47
2022/01/26 02:04:02;;;;;;;94.13;69.93;;;;;;;4.37;74.92;103228.44;4860665;29;20489;-44
2022/01/26 02:06:29;;;;;;;93.20;70.78;;;;;;;4.36;75.25;103214.09;4860985;29;20052;-46
2022/01/26 02:08:57;;;;;;;84.82;62.15;;;;;;;4.38;75.21;103205.84;4860852;29;20049;-44
2022/01/26 02:11:24;;;;;;;89.80;67.78;;;;;;;4.40;75.09;103201.97;4861173;29;20053;-45
2022/01/26 02:14:20;;;;;;;94.43;71.35;;;;;;;4.43;75.33;103206.19;4860775;29;20046;-44
2022/01/26 02:16:51;;;;;;;90.57;68.70;;;;;;;4.42;75.36;103199.06;4860381;29;20045;-45
2022/01/26 02:49:17;;;;;;;93.07;69.47;;;;;;;4.40;74.67;103195.69;4860868;29;20496;-45
2022/01/26 02:55:08;;;;;;;77.57;55.15;;;;;;;4.38;74.53;103154.56;4863521;29;20046;-46
2022/01/26 03:00:28;;;;;;;;;;;;;;;4.39;73.92;103161.63;4864668;29;20050;-43
2022/01/26 03:03:11;;;;;;;93.78;66.03;;;;;;;4.37;74.00;103160.97;4864275;29;19931;-45
2022/01/26 03:05:46;;;;;;;83.53;60.60;;;;;;;4.34;73.97;103164.00;4863756;29;20053;-44
2022/01/26 03:08:14;;;;;;;86.57;64.13;;;;;;;4.34;74.38;103155.91;4847692;29;20042;-44
2022/01/26 03:10:50;;;;;;;84.15;61.50;;;;;;;4.34;74.09;103148.66;4845977;29;20472;-45
2022/01/26 03:13:23;;;;;;;84.03;62.15;;;;;;;4.37;73.89;103142.06;4845866;29;20050;-48
2022/01/26 03:15:56;;;;;;;85.90;61.15;;;;;;;4.34;74.29;103143.25;4845657;29;20053;-48
2022/01/26 03:20:53;;;;;;;88.40;67.25;;;;;;;4.36;74.45;103159.28;4862836;29;20063;-47
2022/01/26 03:34:10;;;;;;;84.40;63.05;;;;;;;4.37;75.47;103142.06;4863907;29;20497;-48
2022/01/26 03:37:00;;;;;;;82.32;62.45;;;;;;;4.38;75.27;103143.75;4863749;29;20045;-48
2022/01/26 03:39:29;;;;;;;86.75;63.97;;;;;;;4.35;75.10;103157.56;4863268;29;20149;-47
2022/01/26 03:42:07;;;;;;;85.30;64.53;;;;;;;4.32;74.68;103161.47;4863283;29;20417;-46
2022/01/26 03:44:35;;;;;;;85.90;64.20;;;;;;;4.32;74.44;103168.72;4863358;29;20527;-48
2022/01/26 03:47:03;;;;;;;82.47;61.55;;;;;;;4.29;74.72;103156.41;4863217;29;20045;-47
2022/01/26 03:49:31;;;;;;;84.90;63.13;;;;;;;4.32;74.66;103142.56;4863513;29;20049;-48
2022/01/26 03:51:58;;;;;;;81.90;60.67;;;;;;;4.37;75.06;103134.81;4864923;29;20424;-48
2022/01/26 03:54:26;;;;;;;83.95;62.47;;;;;;;4.39;74.65;103146.28;4866442;29;20063;-49
2022/01/26 03:56:54;;;;;;;86.38;62.75;;;;;;;4.40;74.96;103147.13;4862665;29;20058;-45
2022/01/26 03:59:21;;;;;;;80.13;59.47;;;;;;;4.41;75.17;103148.81;4863048;29;20542;-46
2022/01/26 04:01:49;;;;;;;77.28;59.55;;;;;;;4.44;75.06;103137.66;4862697;29;20110;-46
2022/01/26 04:04:17;;;;;;;77.55;57.28;;;;;;;4.46;74.63;103127.56;4863347;29;20049;-43
2022/01/26 04:06:45;;;;;;;76.28;58.00;;;;;;;4.49;75.08;103135.31;4863009;29;20420;-48
2022/01/26 04:09:15;;;;;;;75.70;54.58;;;;;;;4.51;75.02;103133.28;4846040;29;20048;-45
2022/01/26 04:11:47;;;;;;;72.38;52.28;;;;;;;4.53;74.90;103133.13;4862951;29;20111;-47
2022/01/26 04:14:19;;;;;;;72.88;53.90;;;;;;;4.53;74.82;103125.03;4862951;29;20053;-47
2022/01/26 04:16:47;;;;;;;82.90;60.25;;;;;;;4.52;74.98;103126.00;4862777;29;20511;-46
2022/01/26 04:19:16;;;;;;;76.22;57.80;;;;;;;4.51;74.99;103127.03;4862714;29;20053;-47
2022/01/26 04:24:25;;;;;;;73.43;52.80;;;;;;;4.53;74.27;103120.47;4862995;29;20037;-50
2022/01/26 04:29:43;;;;;;;91.75;67.00;;;;;;;4.49;74.50;103135.31;4796222;29;20056;-49
2022/01/26 04:32:14;;;;;;;82.50;60.28;;;;;;;4.49;75.33;103144.25;4787674;30;20105;-51
2022/01/26 04:34:42;;;;;;;85.97;63.05;;;;;;;4.50;75.32;103147.81;4787678;30;20062;-49
2022/01/26 04:39:44;;;;;;;77.25;56.78;;;;;;;4.52;75.09;103156.56;4802678;29;20504;-48
2022/01/26 04:42:20;;;;;;;86.18;62.15;;;;;;;4.52;75.41;103161.94;4805196;29;20062;-47
2022/01/26 04:44:56;;;;;;;82.70;59.47;;;;;;;4.50;75.25;103174.81;4805515;29;20051;-48
2022/01/26 04:47:23;;;;;;;72.68;51.83;;;;;;;4.51;75.13;103171.06;4805491;29;20059;-44
2022/01/26 04:49:51;;;;;;;80.88;57.88;;;;;;;4.51;75.53;103173.78;4802304;29;20047;-44
2022/01/26 04:52:18;;;;;;;77.22;56.13;;;;;;;4.53;75.17;103163.66;4805666;29;20523;-45
2022/01/26 04:54:46;;;;;;;83.60;59.53;;;;;;;4.52;75.51;103153.84;4805430;29;20071;-43
2022/01/26 04:57:14;;;;;;;89.10;63.60;;;;;;;4.49;75.48;103178.50;4805208;29;20055;-46
2022/01/26 05:00:14;;;;;;;84.28;61.38;;;;;;;4.48;75.48;103171.41;4750110;30;20139;-48
2022/01/26 05:02:41;;;;;;;84.53;61.55;;;;;;;4.48;75.50;103160.63;4734398;30;20053;-47
2022/01/26 05:05:09;;;;;;;79.38;56.05;;;;;;;4.48;75.79;103144.44;4733816;30;20060;-50
2022/01/26 05:07:37;;;;;;;74.35;54.47;;;;;;;4.48;76.31;103144.44;4778588;30;20059;-47
2022/01/26 05:10:05;;;;;;;91.82;67.05;;;;;;;4.48;75.92;103164.16;4787031;29;20435;-47
2022/01/26 05:12:34;;;;;;;84.72;60.58;;;;;;;4.46;76.00;103152.69;4787654;29;20404;-47
2022/01/26 05:15:02;;;;;;;82.63;59.60;;;;;;;4.46;76.38;103149.97;4788227;29;20058;-48
2022/01/26 05:17:30;;;;;;;74.57;52.70;;;;;;;4.47;76.05;103130.09;4824723;29;20512;-46
2022/01/26 05:19:59;;;;;;;73.80;50.90;;;;;;;4.49;76.31;103119.09;4861681;29;20408;-46
2022/01/26 05:22:30;;;;;;;81.97;56.25;;;;;;;4.52;76.76;103128.72;4856381;29;20519;-46
2022/01/26 05:24:57;;;;;;;84.55;60.22;;;;;;;4.48;76.83;103129.06;4861814;29;20052;-48
2022/01/26 05:27:25;;;;;;;81.38;56.25;;;;;;;4.46;76.47;103111.34;4861913;29;20046;-50
2022/01/26 05:30:24;;;;;;;58.08;42.08;;;;;;;4.49;78.15;103108.31;4786681;30;20116;-49
2022/01/26 05:32:52;;;;;;;76.97;52.30;;;;;;;4.49;77.90;103117.25;4785882;30;20054;-49
2022/01/26 05:35:20;;;;;;;78.57;57.03;;;;;;;4.49;78.26;103124.50;4786518;30;20058;-49
2022/01/26 05:37:48;;;;;;;90.95;61.08;;;;;;;4.47;77.30;103121.13;4786564;30;20051;-45
2022/01/26 05:40:16;;;;;;;81.47;57.10;;;;;;;4.48;77.47;103112.03;4786985;30;20051;-49
2022/01/26 05:42:43;;;;;;;95.38;67.15;;;;;;;4.45;77.28;103125.88;4786226;30;20104;-48
2022/01/26 05:45:22;;;;;;;66.20;47.28;;;;;;;4.47;78.01;103122.00;4786126;30;20506;-47
2022/01/26 05:47:50;;;;;;;84.50;59.05;;;;;;;4.45;78.12;103121.31;4818132;29;20430;-45
2022/01/26 05:50:19;;;;;;;100.55;70.30;;;;;;;4.44;77.53;103118.78;4861211;29;20515;-48
2022/01/26 05:52:46;;;;;;;81.32;57.30;;;;;;;4.40;77.35;103118.28;4861139;29;20068;-49
2022/01/26 05:55:14;;;;;;;83.07;56.90;;;;;;;4.41;77.36;103105.63;4844468;29;20053;-49
2022/01/26 05:57:42;;;;;;;100.95;68.65;;;;;;;4.39;77.66;103102.25;4860775;29;20503;-47
2022/01/26 06:00:10;;;;;;;87.25;59.63;;;;;;;4.38;77.58;103103.28;4862620;29;20519;-44
2022/01/26 06:02:46;;;;;;;78.80;55.63;;;;;;;4.37;77.06;103104.28;4862617;29;20053;-49
2022/01/26 06:05:14;;;;;;;89.78;61.65;;;;;;;4.35;77.30;103106.28;4860756;29;20046;-50
2022/01/26 06:07:41;;;;;;;82.53;57.45;;;;;;;4.36;77.17;103113.41;4860923;29;20061;-47
2022/01/26 06:10:09;;;;;;;101.05;70.65;;;;;;;4.34;77.24;103118.97;4860830;29;20084;-47
2022/01/26 06:12:37;;;;;;;85.78;57.67;;;;;;;4.40;79.04;103114.72;4844397;29;20128;-47
2022/01/26 06:15:05;;;;;;;96.30;65.38;;;;;;;4.36;77.53;103132.28;4860257;29;20056;-46
2022/01/26 06:17:33;;;;;;;102.07;69.60;;;;;;;4.34;77.28;103139.72;4860791;29;20160;-47
2022/01/26 06:20:01;;;;;;;81.35;57.17;;;;;;;4.31;77.37;103121.16;4860653;29;20053;-46
2022/01/26 06:22:29;;;;;;;70.28;48.60;;;;;;;4.35;78.47;103100.91;4843859;29;20041;-48
2022/01/26 06:24:58;;;;;;;84.82;59.90;;;;;;;4.36;78.07;103108.00;4860802;29;20454;-46
2022/01/26 06:27:26;;;;;;;84.68;56.55;;;;;;;4.38;78.82;103111.38;4844206;29;20080;-50
2022/01/26 06:29:53;;;;;;;89.68;60.97;;;;;;;4.36;77.92;103108.84;4860336;29;20055;-48
2022/01/26 06:32:21;;;;;;;82.38;55.42;;;;;;;4.35;78.30;103107.13;4860532;29;20053;-50
2022/01/26 06:34:49;;;;;;;86.75;59.40;;;;;;;4.34;78.19;103110.84;4860306;29;20515;-47
2022/01/26 06:37:16;;;;;;;88.90;61.30;;;;;;;4.33;78.08;103114.59;4860473;29;20489;-46
2022/01/26 06:39:44;;;;;;;80.10;53.47;;;;;;;4.35;78.23;103109.00;4860468;29;20425;-46
2022/01/26 06:42:15;;;;;;;86.35;58.22;;;;;;;4.31;77.76;103099.56;4860189;29;20401;-47
2022/01/26 06:44:56;;;;;;;101.53;69.90;;;;;;;4.29;78.00;103113.22;4860185;29;20060;-48
2022/01/26 06:49:54;;;;;;;80.05;54.70;;;;;;;4.30;78.39;103112.19;4861171;29;20060;-49
2022/01/26 06:52:22;;;;;;;100.15;69.47;;;;;;;4.31;78.36;103121.16;4859993;29;20060;-47
2022/01/26 06:54:49;;;;;;;96.22;65.97;;;;;;;4.30;78.63;103111.38;4860258;29;20041;-49
2022/01/26 06:57:17;;;;;;;97.95;67.55;;;;;;;4.31;78.68;103119.31;4860497;29;20050;-48
2022/01/26 06:59:45;;;;;;;79.97;54.25;;;;;;;4.37;79.34;103120.47;4860170;29;20045;-49
2022/01/26 07:02:13;;;;;;;97.68;65.15;;;;;;;4.38;78.81;103116.78;4859767;29;20503;-47
2022/01/26 07:04:40;;;;;;;98.85;67.85;;;;;;;4.37;79.08;103110.50;4860197;29;20042;-48
2022/01/26 07:07:08;;;;;;;94.45;65.80;;;;;;;4.39;78.85;103110.34;4860604;29;20076;-46
2022/01/26 07:09:36;;;;;;;75.65;51.65;;;;;;;4.38;79.79;103111.38;4860577;29;20048;-48
2022/01/26 07:12:04;;;;;;;99.32;69.35;;;;;;;4.34;79.42;103110.03;4859893;29;20497;-48
2022/01/26 07:22:47;;;;;;;98.28;67.60;;;;;;;4.34;79.61;103142.41;4859813;29;19931;-46
2022/01/26 07:25:21;;;;;;;102.97;69.08;;;;;;;4.26;79.81;103145.97;4749109;29;10000967;-48
2022/01/26 07:27:51;;;;;;;100.82;67.60;;;;;;;4.24;80.28;103126.38;4857192;29;20251;-50
2022/01/26 07:30:18;;;;;;;97.38;66.18;;;;;;;4.20;80.79;103141.22;4856793;29;20054;-49
2022/01/26 07:32:46;;;;;;;101.10;68.65;;;;;;;4.17;80.77;103147.78;4857853;29;20045;-49
2022/01/26 07:35:14;;;;;;;96.05;67.32;;;;;;;4.16;81.10;103137.16;4859604;29;20060;-53
2022/01/26 07:37:43;;;;;;;76.13;48.72;;;;;;;4.30;85.24;103127.56;4860312;29;20052;-49
2022/01/26 07:40:13;;;;;;;99.18;68.38;;;;;;;4.26;82.44;103130.59;4860343;29;20046;-48
2022/01/26 07:42:41;;;;;;;99.78;67.93;;;;;;;4.26;82.10;103130.59;4860376;29;20045;-49
2022/01/26 07:45:11;;;;;;;107.50;68.82;;;;;;;4.29;82.70;103129.41;4859736;29;20053;-47
2022/01/26 07:47:39;;;;;;;93.85;65.30;;;;;;;4.23;82.49;103124.69;4859399;29;20405;-48
2022/01/26 07:50:11;;;;;;;104.20;68.22;;;;;;;4.25;82.63;103115.41;4860089;29;20050;-45
2022/01/26 07:52:41;;;;;;;92.50;62.97;;;;;;;4.27;82.92;103136.84;4860117;29;20412;-45
2022/01/26 07:55:14;;;;;;;103.57;69.63;;;;;;;4.24;83.57;103151.50;4859813;29;20053;-44
2022/01/26 07:57:43;;;;;;;91.93;62.78;;;;;;;4.17;83.33;103158.59;4859486;29;20050;-47
2022/01/26 08:00:12;;;;;;;97.80;65.25;;;;;;;4.19;84.38;103156.56;4859455;29;20046;-46
2022/01/26 08:02:43;;;;;;;100.57;67.95;;;;;;;4.19;84.55;103161.97;4859408;29;20457;-48
2022/01/26 08:05:12;;;;;;;93.40;64.18;;;;;;;4.18;84.32;103162.97;4859198;29;20060;-49
2022/01/26 08:07:40;;;;;;;101.30;66.68;;;;;;;4.08;85.30;103150.66;4842755;29;20492;-51
2022/01/26 08:10:09;;;;;;;108.32;68.55;;;;;;;4.04;85.42;103152.84;4860171;29;20053;-50
2022/01/26 08:12:40;;;;;;;106.75;68.03;;;;;;;4.01;86.33;103164.81;4859636;29;20052;-49
2022/01/26 08:15:25;;;;;;;106.15;69.28;;;;;;;3.97;86.42;103176.09;4858887;29;20136;-46
2022/01/26 08:17:53;;;;;;;101.80;67.03;;;;;;;3.95;87.39;103161.94;4859415;29;20052;-48
2022/01/26 08:20:22;;;;;;;105.13;68.90;;;;;;;3.99;87.55;103168.69;4859081;29;20527;-49
2022/01/26 08:22:51;;;;;;;103.13;66.32;;;;;;;3.99;88.01;103163.28;4859238;29;20148;-49
2022/01/26 08:25:21;;;;;;;96.45;61.42;;;;;;;4.03;89.25;103153.84;4859041;29;20049;-48
2022/01/26 08:27:57;;;;;;;103.22;66.05;;;;;;;4.05;88.11;103160.78;4859255;29;20076;-51
2022/01/26 08:30:25;;;;;;;102.97;65.50;;;;;;;4.04;88.11;103161.78;4862093;29;20378;-49
2022/01/26 08:32:52;;;;;;;104.05;65.88;;;;;;;4.06;87.84;103150.81;4862637;29;20090;-49
2022/01/26 08:35:20;;;;;;;103.75;68.68;;;;;;;4.05;88.24;103158.06;4861126;29;20076;-49
2022/01/26 08:37:47;;;;;;;97.28;65.07;;;;;;;4.04;88.23;103163.63;4862476;29;20054;-50
2022/01/26 08:40:15;;;;;;;86.57;56.42;;;;;;;4.07;87.84;103155.22;4862359;29;20136;-50
2022/01/26 08:42:43;;;;;;;97.10;64.57;;;;;;;4.07;87.77;103162.47;4862608;29;20458;-48
2022/01/26 08:45:11;;;;;;;91.32;59.33;;;;;;;4.05;88.03;103154.53;4861769;29;20068;-47
2022/01/26 08:47:38;;;;;;;98.60;64.88;;;;;;;4.05;88.65;103174.25;4862487;29;20151;-50
2022/01/26 08:50:07;;;;;;;73.22;47.40;;;;;;;4.11;88.38;103164.63;4862105;29;20489;-49
2022/01/26 08:52:36;;;;;;;92.65;60.55;;;;;;;4.14;88.30;103175.13;4862357;29;20052;-48
2022/01/26 08:55:05;;;;;;;78.85;52.10;;;;;;;4.16;88.21;103172.25;4862555;29;20454;-50
2022/01/26 08:57:32;;;;;;;87.53;56.92;;;;;;;4.18;87.86;103165.66;4862199;29;20053;-50
2022/01/26 09:00:01;;;;;;;83.78;54.13;;;;;;;4.20;87.54;103169.03;4861892;29;20069;-51
2022/01/26 09:02:28;;;;;;;88.03;57.05;;;;;;;4.22;87.73;103164.31;4861886;29;20058;-51
2022/01/26 09:04:56;;;;;;;89.10;58.05;;;;;;;4.19;87.71;103156.56;4861818;29;20101;-51
2022/01/26 09:07:24;;;;;;;73.22;48.10;;;;;;;4.19;87.60;103161.97;4861839;29;20053;-50
2022/01/26 09:09:54;;;;;;;88.25;57.28;;;;;;;4.19;87.63;103155.75;4862018;29;20053;-51
2022/01/26 09:12:24;;;;;;;93.78;59.88;;;;;;;4.17;87.60;103158.59;4845266;29;20089;-50
2022/01/26 09:14:52;;;;;;;85.93;56.63;;;;;;;4.19;88.12;103153.88;4861403;29;20404;-52
2022/01/26 09:17:20;;;;;;;87.30;57.40;;;;;;;4.18;88.27;103168.34;4864163;29;20437;-47
2022/01/26 09:19:49;;;;;;;84.70;56.15;;;;;;;4.21;87.71;103167.19;4863067;29;20046;-50
2022/01/26 09:22:19;;;;;;;90.93;57.20;;;;;;;4.22;88.11;103166.19;4861585;29;20054;-52
2022/01/26 09:24:46;;;;;;;77.72;50.97;;;;;;;4.23;87.69;103166.03;4861671;29;20049;-52
2022/01/26 09:27:16;;;;;;;83.28;55.65;;;;;;;4.25;87.52;103172.06;4861576;29;20053;-49
2022/01/26 09:29:45;;;;;;;85.30;56.72;;;;;;;4.24;87.85;103173.09;4861168;29;20041;-50
2022/01/26 09:32:14;;;;;;;76.07;50.28;;;;;;;4.30;88.48;103173.44;4861482;29;20049;-46
2022/01/26 09:34:42;;;;;;;88.43;54.83;;;;;;;4.29;88.35;103169.06;4861026;29;20056;-54
2022/01/26 09:37:13;;;;;;;90.68;57.90;;;;;;;4.29;88.22;103167.19;4861359;29;20045;-49
2022/01/26 09:39:41;;;;;;;85.38;55.03;;;;;;;4.28;88.16;103165.50;4861386;29;20393;-49
2022/01/26 09:42:10;;;;;;;86.38;55.78;;;;;;;4.32;88.68;103156.06;4861318;29;20059;-48
2022/01/26 09:44:38;;;;;;;87.70;56.35;;;;;;;4.31;88.42;103153.56;4844532;29;20508;-48
2022/01/26 09:47:06;;;;;;;74.53;48.78;;;;;;;4.27;88.48;103148.47;4861397;29;20049;-49
2022/01/26 09:49:35;;;;;;;89.20;55.97;;;;;;;4.30;88.60;103157.25;4861230;29;20132;-49
2022/01/26 09:52:13;;;;;;;85.30;55.10;;;;;;;4.31;88.25;103156.25;4861242;29;20055;-49
2022/01/26 09:54:44;;;;;;;84.18;54.35;;;;;;;4.26;88.59;103152.19;4860668;29;20057;-49
2022/01/26 09:57:26;;;;;;;84.18;54.90;;;;;;;4.25;88.47;103145.09;4859907;29;20071;-44
2022/01/26 09:59:54;;;;;;;86.35;54.67;;;;;;;4.24;88.41;103154.22;4860939;29;20060;-45
2022/01/26 10:02:23;;;;;;;86.10;55.60;;;;;;;4.25;88.55;103147.78;4860593;29;20068;-48
2022/01/26 10:04:59;;;;;;;85.53;54.17;;;;;;;4.26;88.60;103144.09;4860936;29;20045;-47
2022/01/26 10:15:35;;;;;;;78.53;52.28;;;;;;;4.26;88.63;103136.00;4843721;29;20112;-48
2022/01/26 10:18:07;;;;;;;74.22;49.65;;;;;;;4.25;88.46;103142.38;4860756;29;20100;-50
2022/01/26 10:20:52;;;;;;;80.03;54.60;;;;;;;4.27;88.47;103137.69;4860897;29;20049;-48
2022/01/26 10:23:25;;;;;;;75.07;49.50;;;;;;;4.30;88.98;103131.09;4860420;29;20061;-49
2022/01/26 10:26:02;;;;;;;76.07;48.75;;;;;;;4.34;88.32;103127.06;4860094;29;20045;-48
2022/01/26 10:28:55;;;;;;;71.15;46.70;;;;;;;4.35;88.50;103136.81;4860186;29;20076;-50
2022/01/26 10:31:29;;;;;;;74.60;50.00;;;;;;;4.35;88.46;103142.22;4860662;29;20041;-47
2022/01/26 10:34:10;;;;;;;79.68;51.50;;;;;;;4.36;88.54;103167.38;4860636;29;20041;-48
2022/01/26 10:36:40;;;;;;;68.90;46.35;;;;;;;4.36;88.21;103187.09;4860014;29;20128;-46
2022/01/26 10:39:25;;;;;;;73.95;48.67;;;;;;;4.35;88.07;103198.06;4860656;29;20488;-50
2022/01/26 10:41:57;;;;;;;74.63;48.92;;;;;;;4.32;88.39;103188.44;4860607;29;20056;-51
2022/01/26 10:44:34;;;;;;;73.10;47.05;;;;;;;4.26;88.27;103189.97;4860607;29;20064;-49
2022/01/26 10:47:05;;;;;;;72.07;45.83;;;;;;;4.23;88.41;103198.41;4860362;29;20049;-49
2022/01/26 10:54:52;;;;;;;69.40;46.00;;;;;;;4.26;88.88;103168.38;4860339;29;20094;-49
2022/01/26 10:57:20;;;;;;;70.82;45.65;;;;;;;4.29;89.04;103166.38;4860165;29;20061;-47
2022/01/26 10:59:49;;;;;;;67.90;45.55;;;;;;;4.32;89.18;103176.81;4860415;29;20045;-47
2022/01/26 11:02:26;;;;;;;65.90;43.75;;;;;;;4.35;89.29;103188.09;4859141;29;20054;-46
2022/01/26 11:04:54;;;;;;;64.95;43.72;;;;;;;4.32;89.18;103171.41;4860017;29;20106;-51
2022/01/26 11:07:34;;;;;;;67.43;42.33;;;;;;;4.30;89.17;103168.03;4860872;29;20136;-49
2022/01/26 11:10:05;;;;;;;64.38;42.63;;;;;;;4.29;89.75;103163.66;4863920;29;20504;-46
2022/01/26 11:12:34;;;;;;;61.45;41.38;;;;;;;4.27;90.14;103164.66;4863311;29;20046;-49
2022/01/26 11:15:07;;;;;;;62.20;41.58;;;;;;;4.29;89.69;103169.06;4863213;29;20046;-47
2022/01/26 11:17:37;;;;;;;65.00;39.20;;;;;;;4.31;89.77;103161.66;4863938;29;20042;-49
2022/01/26 11:20:19;;;;;;;64.65;41.00;;;;;;;4.32;89.74;103160.63;4863497;29;20105;-48
2022/01/26 11:22:55;;;;;;;60.45;40.58;;;;;;;4.34;89.96;103161.31;4863163;29;20113;-49
2022/01/26 11:25:25;;;;;;;62.67;40.78;;;;;;;4.34;89.70;103158.59;4863306;29;20056;-49
2022/01/26 11:27:54;;;;;;;55.67;36.53;;;;;;;4.34;89.62;103162.13;4862301;29;20399;-47
2022/01/26 11:30:30;;;;;;;60.88;38.17;;;;;;;4.37;90.08;103158.25;4863206;29;20497;-47
2022/01/26 11:33:03;;;;;;;56.15;37.42;;;;;;;4.41;89.87;103146.13;4863531;29;20417;-48
2022/01/26 11:35:36;;;;;;;55.70;36.50;;;;;;;4.43;89.85;103146.78;4863086;29;20120;-50
2022/01/26 11:38:11;;;;;;;53.45;32.85;;;;;;;4.54;91.70;103132.94;4863564;29;20041;-51
2022/01/26 11:46:25;;;;;;;58.13;36.70;;;;;;;4.51;90.11;103127.88;4863546;29;20049;-49
2022/01/26 11:49:05;;;;;;;64.45;38.55;;;;;;;4.56;90.22;103130.91;4190397;29;10000729;-50
2022/01/26 11:51:50;;;;;;;54.03;35.13;;;;;;;4.56;89.48;103114.72;4859954;29;20050;-48
2022/01/26 11:54:25;;;;;;;49.80;33.00;;;;;;;4.58;89.32;103118.09;4859754;29;20041;-49
2022/01/26 11:57:09;;;;;;;53.90;38.05;;;;;;;4.56;89.43;103124.66;4859926;29;20132;-48
2022/01/26 11:59:44;;;;;;;50.65;35.22;;;;;;;4.54;89.24;103122.13;4859812;29;20140;-49
2022/01/26 12:02:25;;;;;;;51.75;34.58;;;;;;;4.52;89.22;103107.94;4859423;29;20148;-45
2022/01/26 12:05:06;;;;;;;51.75;31.55;;;;;;;4.53;89.56;103109.66;4859544;29;20097;-49
2022/01/26 12:07:34;;;;;;;53.95;34.95;;;;;;;4.50;89.23;103101.91;4859401;29;20069;-48
2022/01/26 12:10:04;;;;;;;53.17;34.13;;;;;;;4.48;89.86;103106.63;4843900;29;20050;-49
2022/01/26 12:12:35;;;;;;;52.25;35.20;;;;;;;4.48;89.93;103101.22;4863001;29;20046;-50
2022/01/26 12:15:10;;;;;;;51.58;34.50;;;;;;;4.47;90.33;103113.03;4862443;29;20051;-50
2022/01/26 12:18:00;;;;;;;50.60;34.57;;;;;;;4.50;89.60;103120.81;4843918;29;20421;-50
2022/01/26 12:37:14;;;;;;;53.42;34.60;;;;;;;4.55;89.76;103129.22;4862257;29;20042;-48
2022/01/26 12:43:03;;;;;;;53.35;34.22;;;;;;;4.62;89.28;103119.44;4862192;29;20106;-48
2022/01/26 12:45:54;;;;;;;52.55;34.60;;;;;;;4.59;89.42;103119.75;4861966;29;20121;-49
2022/01/26 12:48:22;;;;;;;54.50;36.00;;;;;;;4.57;89.54;103111.00;4861868;29;20057;-52
2022/01/26 12:50:50;;;;;;;57.05;36.30;;;;;;;4.63;89.89;103109.47;4861900;29;20052;-44
2022/01/26 12:53:26;;;;;;;55.03;37.00;;;;;;;4.66;89.41;103109.94;4845399;29;20489;-49
2022/01/26 12:55:59;;;;;;;57.00;36.58;;;;;;;4.64;89.59;103103.91;4862083;29;20415;-48
2022/01/26 12:58:29;;;;;;;54.55;34.90;;;;;;;4.66;89.85;103093.75;4861275;29;20045;-52
2022/01/26 13:01:03;;;;;;;54.70;36.67;;;;;;;4.66;89.61;103093.75;4861806;29;20057;-48
2022/01/26 13:03:33;;;;;;;51.95;35.05;;;;;;;4.67;89.58;103087.34;4861637;29;20089;-48
2022/01/26 13:06:21;;;;;;;45.35;30.90;;;;;;;4.73;90.04;103084.97;4861895;29;20052;-48
2022/01/26 13:08:51;;;;;;;56.78;37.90;;;;;;;4.79;89.98;103081.59;4861135;29;20045;-48
2022/01/26 13:11:39;;;;;;;53.33;35.10;;;;;;;4.79;90.10;103084.28;4861701;29;20118;-47
2022/01/26 13:14:16;;;;;;;44.67;27.60;;;;;;;5.09;95.18;103078.06;4861705;29;20418;-47
2022/01/26 13:25:28;;;;;;;30.38;20.40;;;;;;;5.04;94.10;103064.25;4861663;29;20519;-48
2022/01/26 13:28:13;;;;;;;42.28;28.40;;;;;;;5.01;93.62;103064.63;4844390;29;20057;-50
2022/01/26 13:37:10;;;;;;;54.28;36.47;;;;;;;5.02;92.24;103066.28;4843119;29;20053;-47
2022/01/26 13:39:55;;;;;;;31.13;19.70;;;;;;;4.99;93.46;103060.41;4842910;29;20486;-44
2022/01/26 13:43:09;;;;;;;54.72;36.63;;;;;;;4.90;91.67;103056.88;4842989;29;20050;-52
2022/01/26 13:51:00;;;;;;;;;;;;;;;4.93;91.72;103053.00;4861331;29;20106;-43
2022/01/26 13:53:45;;;;;;;52.83;33.63;;;;;;;5.00;93.70;103052.09;4860913;29;20003;-50
2022/01/26 13:56:31;;;;;;;59.22;38.92;;;;;;;4.99;91.33;103049.59;4860911;29;20133;-51
2022/01/26 14:01:41;;;;;;;55.92;37.75;;;;;;;4.93;90.50;103042.19;4860401;29;20068;-48
2022/01/26 14:04:09;;;;;;;58.58;38.47;;;;;;;4.88;91.01;103045.41;4861000;29;20042;-50
2022/01/26 14:06:37;;;;;;;56.60;36.72;;;;;;;4.84;90.61;103049.50;4860677;29;20079;-49